CheckWX is a tool to help pilots better visualize weather data.  It is not intended as a substitute for an official pre-flight weather briefing.

03:01:29 UTC

KSAZ METAR
Staples Municipal Airport
Staples, Minnesota, USA
Current

25 mins ago

KSAZ 180236Z AUTO 01005KT 10SM CLR M09/M16 A3017 RMK AO2
Observed
Feb-18 @ 02:36 UTC
Wind
  • 010° at 5 KTS
Visibility
10 SM
Flight Rules
VFR
Cloud Levels
  • Clear skies
Temperature
-9°C / 16°F
Dewpoint
-16°C / 3°F
Humidity
57%
Altimeter
30.17" Hg
Pressure
1021.72 hPa
Previous

46 mins ago

KSAZ 180215Z AUTO 01005KT 10SM CLR M09/M16 A3016 RMK AO2
Observed
Feb-18 @ 02:15 UTC
Wind
  • 010° at 5 KTS
Visibility
10 SM
Flight Rules
VFR
Cloud Levels
  • Clear skies
Temperature
-9°C / 16°F
Dewpoint
-16°C / 3°F
Humidity
57%
Altimeter
30.16" Hg
Pressure
1021.32 hPa
Previous

1 hour ago

KSAZ 180155Z AUTO 01005KT 10SM SCT110 M09/M16 A3016 RMK AO2
Observed
Feb-18 @ 01:55 UTC
Wind
  • 010° at 5 KTS
Visibility
10 SM
Flight Rules
VFR
Cloud Levels
  • Scattered at 11,000' AGL
Temperature
-9°C / 16°F
Dewpoint
-16°C / 3°F
Humidity
57%
Altimeter
30.16" Hg
Pressure
1021.32 hPa